createdAt,value
2023-05-14T00:01:20.304Z,96799.44
2023-05-14T00:03:47.205Z,96802.34
2023-05-14T00:06:15.506Z,96800.84
2023-05-14T00:08:42.339Z,96791.72
2023-05-14T00:11:09.338Z,96793.56
2023-05-14T00:13:36.533Z,96792.56
2023-05-14T00:16:03.684Z,96792.56
2023-05-14T00:18:30.656Z,96786.13
2023-05-14T00:20:57.570Z,96785.09
2023-05-14T00:23:24.572Z,96781.56
2023-05-14T00:25:51.387Z,96778.03
2023-05-14T00:28:18.153Z,96769.94
2023-05-14T00:30:45.224Z,96772.63
2023-05-14T00:33:12.370Z,96773.66
2023-05-14T00:35:39.263Z,96771.97
2023-05-14T00:38:06.275Z,96765.94
2023-05-14T00:40:33.974Z,96770.66
2023-05-14T00:43:01.066Z,96764.63
2023-05-14T00:45:28.256Z,96760.63
2023-05-14T00:47:55.173Z,96758.97
2023-05-14T00:50:22.978Z,96751.41
2023-05-14T00:52:50.030Z,96751.59
2023-05-14T00:55:17.213Z,96748.41
2023-05-14T00:57:44.381Z,96745.25
2023-05-14T01:00:11.773Z,96741.25
2023-05-14T01:02:38.881Z,96742.63
2023-05-14T01:05:06.832Z,96741.53
2023-05-14T01:08:00.763Z,96736.94
2023-05-14T01:10:45.584Z,96741.19
2023-05-14T01:13:36.371Z,96740.63
2023-05-14T01:16:05.061Z,96736.06
2023-05-14T01:18:32.937Z,96735.41
2023-05-14T01:20:59.751Z,96736.63
2023-05-14T01:23:26.517Z,96740.03
2023-05-14T01:25:53.319Z,96728.97
2023-05-14T01:28:29.564Z,96727.38
2023-05-14T01:31:08.452Z,96729.94
2023-05-14T01:33:37.081Z,96733.47
2023-05-14T01:36:04.886Z,96729.31
2023-05-14T01:38:33.995Z,96736.09
2023-05-14T01:41:01.470Z,96732.91
2023-05-14T01:43:30.003Z,96736.16
2023-05-14T01:45:56.879Z,96743.56
2023-05-14T01:48:25.336Z,96745.97
2023-05-14T01:50:52.638Z,96735.53
2023-05-14T01:53:19.598Z,96734.06
2023-05-14T01:55:46.500Z,96748.56
2023-05-14T01:58:13.395Z,96740.81
2023-05-14T02:00:40.193Z,96745.53
2023-05-14T02:03:07.093Z,96747.59
2023-05-14T02:05:34.255Z,96744.06
2023-05-14T02:08:01.127Z,96744.22
2023-05-14T02:10:28.054Z,96743.38
2023-05-14T02:12:55.946Z,96735.84
2023-05-14T02:15:22.897Z,96734.34
2023-05-14T02:17:49.742Z,96734.00
2023-05-14T02:20:16.699Z,96737.41
2023-05-14T02:22:45.632Z,96733.75
2023-05-14T02:25:12.752Z,96733.81
2023-05-14T02:27:39.513Z,96738.06
2023-05-14T02:30:07.100Z,96726.31
2023-05-14T02:32:34.077Z,96733.06
2023-05-14T02:35:01.080Z,96726.34
2023-05-14T02:37:27.944Z,96729.38
2023-05-14T02:39:54.789Z,96732.44
2023-05-14T02:42:23.045Z,96731.75
2023-05-14T02:44:50.192Z,96740.88
2023-05-14T02:47:16.988Z,96743.91
2023-05-14T02:49:43.785Z,96737.69
2023-05-14T02:52:10.622Z,96732.47
2023-05-14T02:54:37.627Z,96740.72
2023-05-14T02:57:04.881Z,96734.84
2023-05-14T02:59:31.924Z,96732.31
2023-05-14T03:01:59.364Z,96733.34
2023-05-14T03:04:26.718Z,96731.69
2023-05-14T03:06:53.702Z,96728.13
2023-05-14T03:09:20.597Z,96733.34
2023-05-14T03:11:47.399Z,96734.00
2023-05-14T03:14:14.328Z,96733.00
2023-05-14T03:16:42.133Z,96731.97
2023-05-14T03:19:09.791Z,96736.16
2023-05-14T03:21:36.764Z,96737.69
2023-05-14T03:24:03.650Z,96734.78
2023-05-14T03:26:30.460Z,96737.34
2023-05-14T03:28:57.328Z,96738.81
2023-05-14T03:31:25.033Z,96738.47
2023-05-14T03:33:52.093Z,96738.28
2023-05-14T03:36:18.906Z,96731.53
2023-05-14T03:38:47.928Z,96733.06
2023-05-14T03:41:15.670Z,96731.03
2023-05-14T03:43:42.780Z,96732.38
2023-05-14T03:46:09.671Z,96725.75
2023-05-14T03:48:36.660Z,96724.59
2023-05-14T03:51:05.279Z,96719.69
2023-05-14T03:53:32.061Z,96721.16
2023-05-14T03:55:58.842Z,96721.34
2023-05-14T03:58:26.203Z,96728.59
2023-05-14T04:00:53.617Z,96727.56
2023-05-14T04:03:20.594Z,96729.44
2023-05-14T04:05:47.478Z,96740.03
2023-05-14T04:08:14.288Z,96730.09
2023-05-14T04:10:42.036Z,96733.63
2023-05-14T04:13:08.898Z,96730.09
2023-05-14T04:15:39.267Z,96730.28
2023-05-14T04:18:06.189Z,96730.28
2023-05-14T04:20:33.088Z,96725.53
2023-05-14T04:22:59.886Z,96727.22
2023-05-14T04:25:26.774Z,96735.31
2023-05-14T04:27:53.670Z,96729.75
2023-05-14T04:30:21.010Z,96732.25
2023-05-14T04:32:48.006Z,96725.66
2023-05-14T04:35:14.843Z,96736.09
2023-05-14T04:37:41.774Z,96730.53
2023-05-14T04:40:12.562Z,96728.03
2023-05-14T04:42:39.402Z,96727.00
2023-05-14T04:45:07.279Z,96726.16
2023-05-14T04:47:34.346Z,96738.44
2023-05-14T04:50:01.254Z,96722.94
2023-05-14T04:52:28.093Z,96724.44
2023-05-14T04:54:55.046Z,96733.00
2023-05-14T04:57:22.046Z,96740.59
2023-05-14T04:59:48.850Z,96732.13
2023-05-14T05:02:15.700Z,96733.44
2023-05-14T05:04:42.691Z,96735.13
2023-05-14T05:07:09.499Z,96734.75
2023-05-14T05:09:36.359Z,96738.97
2023-05-14T05:12:03.195Z,96730.69
2023-05-14T05:14:30.026Z,96727.00
2023-05-14T05:16:56.824Z,96721.59
2023-05-14T05:19:35.639Z,96721.59
2023-05-14T05:22:07.005Z,96722.44
2023-05-14T05:24:33.791Z,96723.91
2023-05-14T05:27:00.660Z,96729.16
2023-05-14T05:29:27.501Z,96721.69
2023-05-14T05:31:54.411Z,96726.06
2023-05-14T05:34:21.545Z,96726.38
2023-05-14T05:36:48.411Z,96728.06
2023-05-14T05:39:15.226Z,96727.69
2023-05-14T05:41:43.461Z,96715.69
2023-05-14T05:44:10.319Z,96722.41
2023-05-14T05:46:37.462Z,96722.03
2023-05-14T05:49:04.266Z,96722.34
2023-05-14T05:51:31.428Z,96716.22
2023-05-14T05:53:58.242Z,96725.44
2023-05-14T05:56:25.108Z,96722.19
2023-05-14T05:58:52.019Z,96725.34
2023-05-14T06:01:18.848Z,96726.47
2023-05-14T06:03:48.261Z,96723.59
2023-05-14T06:06:15.588Z,96719.88
2023-05-14T06:08:42.500Z,96726.94
2023-05-14T06:11:10.343Z,96727.78
2023-05-14T06:13:37.114Z,96731.16
2023-05-14T06:16:04.055Z,96732.47
2023-05-14T06:18:30.940Z,96736.47
2023-05-14T06:20:59.952Z,96729.00
2023-05-14T06:23:27.107Z,96728.00
2023-05-14T06:25:54.202Z,96720.06
2023-05-14T06:28:21.212Z,96727.53
2023-05-14T06:30:50.583Z,96735.78
2023-05-14T06:33:19.411Z,96735.44
2023-05-14T06:35:47.322Z,96729.75
2023-05-14T06:38:14.116Z,96732.84
2023-05-14T06:40:40.866Z,96731.63
2023-05-14T06:43:07.689Z,96729.19
2023-05-14T06:45:34.566Z,96724.97
2023-05-14T06:48:01.512Z,96729.81
2023-05-14T06:50:28.476Z,96730.91
2023-05-14T06:52:55.336Z,96730.19
2023-05-14T06:55:22.257Z,96731.28
2023-05-14T06:57:49.064Z,96724.13
2023-05-14T07:00:16.895Z,96723.34
2023-05-14T07:02:43.751Z,96720.94
2023-05-14T07:05:11.171Z,96721.22
2023-05-14T07:07:37.974Z,96720.66
2023-05-14T07:10:05.828Z,96723.81
2023-05-14T07:12:32.596Z,96724.06
2023-05-14T07:14:59.401Z,96721.81
2023-05-14T07:17:26.257Z,96722.09
2023-05-14T07:19:55.427Z,96716.78
2023-05-14T07:22:22.552Z,96719.72
2023-05-14T07:24:50.301Z,96717.28
2023-05-14T07:27:17.249Z,96717.53
2023-05-14T07:29:44.349Z,96711.38
2023-05-14T07:32:12.731Z,96704.38
2023-05-14T07:34:40.832Z,96711.09
2023-05-14T07:37:07.699Z,96707.63
2023-05-14T07:39:34.544Z,96705.78
2023-05-14T07:42:01.959Z,96708.19
2023-05-14T07:44:28.800Z,96707.84
2023-05-14T07:46:55.736Z,96709.19
2023-05-14T07:49:22.563Z,96705.31
2023-05-14T07:51:49.359Z,96706.00
2023-05-14T07:54:16.759Z,96698.94
2023-05-14T07:56:44.417Z,96696.69
2023-05-14T07:59:11.202Z,96702.78
2023-05-14T08:01:39.312Z,96701.34
2023-05-14T08:04:06.639Z,96702.63
2023-05-14T08:06:33.949Z,96699.34
2023-05-14T08:09:00.943Z,96691.50
2023-05-14T08:11:27.929Z,96704.00
2023-05-14T08:13:54.786Z,96703.22
2023-05-14T08:16:21.846Z,96703.25
2023-05-14T08:18:48.926Z,96701.41
2023-05-14T08:21:15.850Z,96697.09
2023-05-14T08:23:42.790Z,96692.72
2023-05-14T08:26:10.738Z,96700.25
2023-05-14T08:28:37.574Z,96693.81
2023-05-14T08:31:04.407Z,96689.44
2023-05-14T08:33:31.314Z,96688.66
2023-05-14T08:36:00.448Z,96685.50
2023-05-14T08:38:27.307Z,96686.97
2023-05-14T08:41:01.111Z,96692.19
2023-05-14T08:43:45.243Z,96690.75
2023-05-14T08:46:15.294Z,96688.88
2023-05-14T08:48:43.690Z,96685.41
2023-05-14T08:51:10.582Z,96681.25
2023-05-14T08:53:38.410Z,96683.53
2023-05-14T08:56:07.037Z,96680.19
2023-05-14T08:58:33.980Z,96676.69
2023-05-14T09:01:00.824Z,96672.72
2023-05-14T09:03:28.634Z,96669.38
2023-05-14T09:05:56.452Z,96665.63
2023-05-14T09:08:24.292Z,96675.22
2023-05-14T09:10:51.490Z,96675.84
2023-05-14T09:13:18.528Z,96670.19
2023-05-14T09:15:46.203Z,96668.25
2023-05-14T09:18:13.121Z,96666.13
2023-05-14T09:20:40.649Z,96662.13
2023-05-14T09:23:07.497Z,96665.38
2023-05-14T09:25:34.312Z,96657.19
2023-05-14T09:28:07.645Z,96653.56
2023-05-14T09:30:36.927Z,96657.66
2023-05-14T09:33:04.266Z,96656.09
2023-05-14T09:35:32.284Z,96654.78
2023-05-14T09:37:59.190Z,96650.75
2023-05-14T09:40:26.222Z,96656.13
2023-05-14T09:42:53.330Z,96651.28
2023-05-14T09:45:20.207Z,96651.66
2023-05-14T09:47:47.258Z,96655.38
2023-05-14T09:50:14.431Z,96651.16
2023-05-14T09:52:41.285Z,96647.78
2023-05-14T09:55:08.665Z,96645.22
2023-05-14T09:57:35.754Z,96643.72
2023-05-14T10:00:02.924Z,96643.63
2023-05-14T10:02:37.740Z,96637.50
2023-05-14T10:05:06.420Z,96639.50
2023-05-14T10:07:44.645Z,96641.53
2023-05-14T10:10:16.868Z,96643.53
2023-05-14T10:12:57.480Z,96641.13
2023-05-14T10:15:34.775Z,96638.09
2023-05-14T10:18:12.362Z,96644.09
2023-05-14T10:20:41.384Z,96636.19
2023-05-14T10:23:08.249Z,96627.09
2023-05-14T10:25:36.918Z,96633.16
2023-05-14T10:28:05.931Z,96636.72
2023-05-14T10:30:32.990Z,96632.09
2023-05-14T10:33:18.340Z,96635.50
2023-05-14T10:36:06.660Z,96635.59
2023-05-14T10:38:36.082Z,96638.91
2023-05-14T10:41:07.054Z,96633.72
2023-05-14T10:43:39.161Z,96621.97
2023-05-14T10:46:07.663Z,96618.38
2023-05-14T10:48:36.889Z,96606.28
2023-05-14T10:51:03.844Z,96621.97
2023-05-14T10:53:48.930Z,96612.03
2023-05-14T10:56:15.840Z,96609.88
2023-05-14T10:58:44.729Z,96605.38
2023-05-14T11:01:13.227Z,96605.75
2023-05-14T11:03:42.298Z,96606.69
2023-05-14T11:06:11.181Z,96602.63
2023-05-14T11:08:39.226Z,96595.53
2023-05-14T11:11:10.150Z,96594.59
2023-05-14T11:13:37.547Z,96598.84
2023-05-14T11:16:21.147Z,96593.75
2023-05-14T11:19:02.110Z,96589.63
2023-05-14T11:21:30.358Z,96579.28
2023-05-14T11:23:57.762Z,96588.66
2023-05-14T11:26:24.694Z,96581.13
2023-05-14T11:28:51.991Z,96587.59
2023-05-14T11:31:19.201Z,96577.59
2023-05-14T11:33:46.449Z,96581.78
2023-05-14T11:36:13.450Z,96583.50
2023-05-14T11:38:51.259Z,96586.69
2023-05-14T11:41:20.798Z,96588.25
2023-05-14T11:43:48.189Z,96589.25
2023-05-14T11:46:18.817Z,96593.78
2023-05-14T11:48:46.021Z,96593.63
2023-05-14T11:51:13.040Z,96597.84
2023-05-14T11:53:39.926Z,96599.50
2023-05-14T11:56:09.031Z,96594.69
2023-05-14T11:58:36.716Z,96599.22
2023-05-14T12:01:03.592Z,96593.84
2023-05-14T12:03:31.012Z,96589.00
2023-05-14T12:05:59.655Z,96590.91
2023-05-14T12:08:28.100Z,96579.19
2023-05-14T12:10:55.369Z,96588.13
2023-05-14T12:13:26.358Z,96573.13
2023-05-14T12:15:59.275Z,96573.59
2023-05-14T12:18:31.567Z,96572.22
2023-05-14T12:21:08.232Z,96556.91
2023-05-14T12:23:35.443Z,96553.84
2023-05-14T12:26:07.006Z,96560.78
2023-05-14T12:28:38.411Z,96556.41
2023-05-14T12:31:05.627Z,96556.31
2023-05-14T12:33:32.559Z,96553.81
2023-05-14T12:36:17.482Z,96551.41
2023-05-14T12:38:48.352Z,96552.38
2023-05-14T12:41:15.171Z,96552.84
2023-05-14T12:43:47.904Z,96557.47
2023-05-14T12:46:15.015Z,96554.47
2023-05-14T12:48:41.807Z,96558.91
2023-05-14T12:51:08.688Z,96553.81
2023-05-14T12:53:35.708Z,96553.13
2023-05-14T12:58:29.352Z,96547.53
2023-05-14T13:00:56.416Z,96543.16
2023-05-14T13:03:23.533Z,96547.09
2023-05-14T13:05:52.263Z,96554.94
2023-05-14T13:08:21.448Z,96543.44
2023-05-14T13:10:48.508Z,96545.09
2023-05-14T13:13:15.827Z,96527.03
2023-05-14T13:15:42.663Z,96542.47
2023-05-14T13:18:09.572Z,96542.03
2023-05-14T13:20:36.761Z,96544.91
2023-05-14T13:23:03.609Z,96536.88
2023-05-14T13:25:30.514Z,96538.25
2023-05-14T13:27:57.445Z,96528.91
2023-05-14T13:30:24.359Z,96535.97
2023-05-14T13:32:51.397Z,96530.66
2023-05-14T13:35:18.645Z,96536.28
2023-05-14T13:40:12.823Z,96528.81
2023-05-14T13:45:07.915Z,96521.19
2023-05-14T13:47:34.824Z,96523.16
2023-05-14T13:50:01.660Z,96520.16
2023-05-14T13:52:28.487Z,96515.69
2023-05-14T13:54:58.017Z,96515.38
2023-05-14T13:57:24.949Z,96505.47
2023-05-14T13:59:51.756Z,96506.22
2023-05-14T14:02:18.595Z,96496.88
2023-05-14T14:04:45.476Z,96502.84
2023-05-14T14:07:12.315Z,96499.34
2023-05-14T14:09:39.165Z,96488.75
2023-05-14T14:12:06.601Z,96485.88
2023-05-14T14:14:33.553Z,96492.59
2023-05-14T14:17:00.665Z,96491.34
2023-05-14T14:19:27.506Z,96489.69
2023-05-14T14:21:54.545Z,96491.50
2023-05-14T14:24:21.361Z,96486.63
2023-05-14T14:26:48.151Z,96485.91
2023-05-14T14:29:14.935Z,96475.94
2023-05-14T14:31:41.803Z,96481.06
2023-05-14T14:34:08.773Z,96470.41
2023-05-14T14:36:35.730Z,96477.56
2023-05-14T14:39:02.513Z,96480.94
2023-05-14T14:41:29.754Z,96476.84
2023-05-14T14:43:56.719Z,96477.00
2023-05-14T14:46:23.601Z,96474.88
2023-05-14T14:48:50.441Z,96472.97
2023-05-14T14:51:17.287Z,96470.03
2023-05-14T14:53:44.178Z,96474.63
2023-05-14T14:56:11.121Z,96472.38
2023-05-14T14:58:38.251Z,96469.03
2023-05-14T15:01:05.270Z,96477.22
2023-05-14T15:03:32.371Z,96467.06
2023-05-14T15:05:59.422Z,96464.44
2023-05-14T15:08:28.009Z,96467.34
2023-05-14T15:10:59.271Z,96468.69
2023-05-14T15:13:26.860Z,96463.28
2023-05-14T15:15:53.715Z,96460.22
2023-05-14T15:18:20.784Z,96465.59
2023-05-14T15:20:47.803Z,96464.03
2023-05-14T15:23:14.619Z,96460.81
2023-05-14T15:25:41.426Z,96469.94
2023-05-14T15:28:08.417Z,96459.44
2023-05-14T15:30:35.315Z,96461.19
2023-05-14T15:33:02.287Z,96462.41
2023-05-14T15:35:29.256Z,96462.78
2023-05-14T15:37:57.325Z,96462.84
2023-05-14T15:40:24.489Z,96461.69
2023-05-14T15:42:51.499Z,96456.97
2023-05-14T15:45:18.555Z,96450.31
2023-05-14T15:47:45.501Z,96452.72
2023-05-14T15:50:12.668Z,96451.56
2023-05-14T15:52:39.952Z,96441.88
2023-05-14T15:55:07.674Z,96444.00
2023-05-14T15:57:34.663Z,96444.81
2023-05-14T16:00:01.807Z,96441.69
2023-05-14T16:02:33.148Z,96446.78
2023-05-14T16:05:00.223Z,96445.25
2023-05-14T16:07:27.112Z,96446.28
2023-05-14T16:09:54.046Z,96437.06
2023-05-14T16:12:20.864Z,96447.25
2023-05-14T16:14:47.744Z,96439.56
2023-05-14T16:17:14.649Z,96441.19
2023-05-14T16:19:41.634Z,96438.38
2023-05-14T16:22:08.506Z,96451.97
2023-05-14T16:24:36.065Z,96442.59
2023-05-14T16:27:04.783Z,96446.22
2023-05-14T16:29:32.621Z,96447.16
2023-05-14T16:31:59.936Z,96443.78
2023-05-14T16:34:26.720Z,96443.91
2023-05-14T16:36:53.538Z,96442.97
2023-05-14T16:39:20.504Z,96445.34
2023-05-14T16:41:47.351Z,96444.31
2023-05-14T16:44:14.204Z,96443.78
2023-05-14T16:46:41.010Z,96437.28
2023-05-14T16:49:07.856Z,96439.38
2023-05-14T16:51:34.807Z,96440.75
2023-05-14T16:54:01.738Z,96439.44
2023-05-14T16:56:29.260Z,96432.50
2023-05-14T16:58:56.088Z,96426.47
2023-05-14T17:01:22.956Z,96429.91
2023-05-14T17:03:49.758Z,96426.84
2023-05-14T17:06:16.611Z,96431.03
2023-05-14T17:08:43.458Z,96433.47
2023-05-14T17:11:10.419Z,96429.44
2023-05-14T17:13:37.267Z,96424.78
2023-05-14T17:16:04.370Z,96428.22
2023-05-14T17:18:32.561Z,96428.09
2023-05-14T17:20:59.483Z,96433.19
2023-05-14T17:23:26.349Z,96434.66
2023-05-14T17:25:53.166Z,96429.34
2023-05-14T17:28:19.985Z,96430.91
2023-05-14T17:30:46.749Z,96431.69
2023-05-14T17:33:13.592Z,96428.13
2023-05-14T17:35:40.467Z,96432.50
2023-05-14T17:38:07.327Z,96432.81
2023-05-14T17:40:34.697Z,96438.47
2023-05-14T17:43:01.795Z,96448.91
2023-05-14T17:45:34.141Z,96448.41
2023-05-14T17:48:06.630Z,96447.19
2023-05-14T17:50:33.502Z,96449.88
2023-05-14T17:53:00.364Z,96447.59
2023-05-14T17:55:27.209Z,96453.22
2023-05-14T17:57:54.033Z,96449.81
2023-05-14T18:00:20.932Z,96450.78
2023-05-14T18:02:47.861Z,96459.06
2023-05-14T18:05:14.796Z,96460.84
2023-05-14T18:07:41.707Z,96454.97
2023-05-14T18:10:08.853Z,96454.50
2023-05-14T18:12:35.811Z,96460.59
2023-05-14T18:15:02.584Z,96453.94
2023-05-14T18:17:29.597Z,96450.50
2023-05-14T18:19:56.395Z,96455.81
2023-05-14T18:22:23.197Z,96460.91
2023-05-14T18:24:49.988Z,96466.78
2023-05-14T18:27:16.808Z,96457.38
2023-05-14T18:29:43.690Z,96462.41
2023-05-14T18:32:10.499Z,96467.22
2023-05-14T18:34:37.333Z,96475.56
2023-05-14T18:37:04.226Z,96468.16
2023-05-14T18:39:31.158Z,96467.75
2023-05-14T18:41:58.007Z,96476.28
2023-05-14T18:44:24.850Z,96479.38
2023-05-14T18:46:52.271Z,96465.28
2023-05-14T18:49:19.106Z,96464.56
2023-05-14T18:51:45.971Z,96461.16
2023-05-14T18:54:12.792Z,96462.94
2023-05-14T18:56:45.377Z,96454.66
2023-05-14T18:59:13.651Z,96470.28
2023-05-14T19:01:40.536Z,96472.44
2023-05-14T19:04:08.068Z,96471.94
2023-05-14T19:06:36.035Z,96474.28
2023-05-14T19:09:02.858Z,96481.03
2023-05-14T19:11:30.878Z,96477.75
2023-05-14T19:13:57.883Z,96479.66
2023-05-14T19:16:24.853Z,96487.81
2023-05-14T19:18:51.828Z,96487.88
2023-05-14T19:21:18.724Z,96495.00
2023-05-14T19:23:45.645Z,96485.19
2023-05-14T19:26:12.476Z,96495.81
2023-05-14T19:28:39.315Z,96494.22
2023-05-14T19:31:06.293Z,96495.88
2023-05-14T19:33:33.220Z,96499.66
2023-05-14T19:36:00.031Z,96500.50
2023-05-14T19:38:27.171Z,96504.28
2023-05-14T19:40:56.799Z,96500.75
2023-05-14T19:43:27.864Z,96502.22
2023-05-14T19:45:54.731Z,96511.19
2023-05-14T19:48:21.557Z,96502.44
2023-05-14T19:50:48.436Z,96505.34
2023-05-14T19:53:15.413Z,96501.19
2023-05-14T19:55:42.226Z,96507.84
2023-05-14T19:58:11.961Z,96503.88
2023-05-14T20:00:39.044Z,96504.69
2023-05-14T20:03:07.347Z,96510.72
2023-05-14T20:05:34.308Z,96508.81
2023-05-14T20:08:01.156Z,96513.16
2023-05-14T20:10:28.351Z,96515.44
2023-05-14T20:12:55.358Z,96505.97
2023-05-14T20:15:23.587Z,96508.03
2023-05-14T20:17:50.472Z,96508.03
2023-05-14T20:20:17.361Z,96509.03
2023-05-14T20:22:44.960Z,96509.41
2023-05-14T20:25:12.237Z,96510.59
2023-05-14T20:27:39.105Z,96513.88
2023-05-14T20:30:06.955Z,96511.53
2023-05-14T20:32:34.170Z,96501.91
2023-05-14T20:35:01.991Z,96503.72
2023-05-14T20:37:30.468Z,96498.63
2023-05-14T20:39:57.400Z,96490.88
2023-05-14T20:42:25.453Z,96495.16
2023-05-14T20:44:53.470Z,96497.34
2023-05-14T20:47:24.064Z,96497.91
2023-05-14T20:49:51.189Z,96487.63
2023-05-14T20:52:18.750Z,96493.31
2023-05-14T20:54:45.856Z,96486.00
2023-05-14T20:57:17.921Z,96478.03
2023-05-14T20:59:45.984Z,96482.75
2023-05-14T21:02:12.978Z,96484.34
2023-05-14T21:04:40.024Z,96487.13
2023-05-14T21:07:07.202Z,96491.81
2023-05-14T21:09:34.079Z,96490.06
2023-05-14T21:12:00.947Z,96486.47
2023-05-14T21:14:27.758Z,96494.28
2023-05-14T21:16:54.542Z,96489.47
2023-05-14T21:19:23.248Z,96492.69
2023-05-14T21:21:50.314Z,96493.09
2023-05-14T21:24:17.072Z,96490.13
2023-05-14T21:26:43.875Z,96494.03
2023-05-14T21:29:11.263Z,96492.38
2023-05-14T21:31:38.129Z,96487.97
2023-05-14T21:34:04.987Z,96474.50
2023-05-14T21:36:31.917Z,96481.59
2023-05-14T21:38:58.746Z,96479.53
2023-05-14T21:41:25.597Z,96474.97
2023-05-14T21:43:52.477Z,96471.25
2023-05-14T21:46:19.380Z,96477.28
2023-05-14T21:48:46.259Z,96477.66
2023-05-14T21:51:13.202Z,96481.75
2023-05-14T21:53:40.042Z,96477.97
2023-05-14T21:56:07.997Z,96467.75
2023-05-14T21:58:35.486Z,96475.56
2023-05-14T22:01:02.386Z,96465.31
2023-05-14T22:03:29.276Z,96470.44
2023-05-14T22:05:56.150Z,96473.91
2023-05-14T22:08:23.677Z,96467.00
2023-05-14T22:10:50.630Z,96471.75
2023-05-14T22:13:17.422Z,96479.19
2023-05-14T22:15:44.551Z,96471.47
2023-05-14T22:18:12.692Z,96470.81
2023-05-14T22:20:40.030Z,96470.34
2023-05-14T22:23:07.098Z,96472.41
2023-05-14T22:25:34.120Z,96465.34
2023-05-14T22:28:00.964Z,96467.84
2023-05-14T22:30:27.809Z,96453.72
2023-05-14T22:32:54.618Z,96455.38
2023-05-14T22:35:21.575Z,96450.84
2023-05-14T22:37:48.404Z,96453.34
2023-05-14T22:40:15.257Z,96452.31
2023-05-14T22:42:42.066Z,96450.47
2023-05-14T22:45:09.537Z,96453.81
2023-05-14T22:47:37.573Z,96458.19
2023-05-14T22:50:11.014Z,96447.22
2023-05-14T22:52:41.483Z,96448.22
2023-05-14T22:55:08.818Z,96444.34
2023-05-14T22:57:35.669Z,96442.28
2023-05-14T23:00:04.421Z,96446.69
2023-05-14T23:02:31.294Z,96443.78
2023-05-14T23:04:58.128Z,96447.31
2023-05-14T23:07:25.169Z,96444.41
2023-05-14T23:09:52.042Z,96443.59
2023-05-14T23:12:18.944Z,96436.53
2023-05-14T23:14:45.968Z,96437.34
2023-05-14T23:17:14.513Z,96426.56
2023-05-14T23:19:41.513Z,96433.84
2023-05-14T23:22:08.455Z,96427.81
2023-05-14T23:24:35.332Z,96435.22
2023-05-14T23:27:02.352Z,96428.19
2023-05-14T23:29:29.195Z,96430.88
2023-05-14T23:31:56.053Z,96431.91
2023-05-14T23:34:22.934Z,96433.94
2023-05-14T23:36:50.233Z,96434.28
2023-05-14T23:39:17.411Z,96434.69
2023-05-14T23:41:44.217Z,96430.69
2023-05-14T23:44:11.062Z,96427.53
2023-05-14T23:46:37.872Z,96431.22
2023-05-14T23:49:05.162Z,96425.16
2023-05-14T23:51:32.015Z,96422.69
2023-05-14T23:53:58.913Z,96415.78
2023-05-14T23:56:30.016Z,96418.69
2023-05-14T23:58:56.955Z,96408.25
